sensor_id;sensor_type;location;lat;lon;timestamp;pressure;altitude;pressure_sealevel;temperature;humidity
29379;BME280;16362;47.202;15.258;2023-03-05T00:01:20;95992.72;;;-1.37;100.00
29379;BME280;16362;47.202;15.258;2023-03-05T00:03:52;95987.66;;;-1.40;100.00
29379;BME280;16362;47.202;15.258;2023-03-05T00:06:24;95996.78;;;-1.45;100.00
29379;BME280;16362;47.202;15.258;2023-03-05T00:08:52;96000.56;;;-1.49;100.00
29379;BME280;16362;47.202;15.258;2023-03-05T00:12:34;96011.25;;;-1.53;100.00
29379;BME280;16362;47.202;15.258;2023-03-05T00:15:01;96003.59;;;-1.56;100.00
29379;BME280;16362;47.202;15.258;2023-03-05T00:17:28;96009.25;;;-1.62;100.00
29379;BME280;16362;47.202;15.258;2023-03-05T00:19:57;96004.44;;;-1.68;100.00
29379;BME280;16362;47.202;15.258;2023-03-05T00:22:40;96010.41;;;-1.79;100.00
29379;BME280;16362;47.202;15.258;2023-03-05T00:25:07;96002.88;;;-1.83;100.00
29379;BME280;16362;47.202;15.258;2023-03-05T00:27:33;96000.28;;;-1.83;100.00
29379;BME280;16362;47.202;15.258;2023-03-05T00:30:00;96007.47;;;-1.87;100.00
29379;BME280;16362;47.202;15.258;2023-03-05T00:32:27;95993.47;;;-1.86;100.00
29379;BME280;16362;47.202;15.258;2023-03-05T00:34:54;96000.28;;;-1.83;100.00
29379;BME280;16362;47.202;15.258;2023-03-05T00:37:21;96001.53;;;-1.89;100.00
29379;BME280;16362;47.202;15.258;2023-03-05T00:39:47;96005.41;;;-1.95;100.00
29379;BME280;16362;47.202;15.258;2023-03-05T00:42:14;96006.94;;;-1.92;100.00
29379;BME280;16362;47.202;15.258;2023-03-05T00:44:40;96000.47;;;-1.99;100.00
29379;BME280;16362;47.202;15.258;2023-03-05T00:47:07;95993.88;;;-1.92;100.00
29379;BME280;16362;47.202;15.258;2023-03-05T00:49:34;95991.38;;;-1.94;100.00
29379;BME280;16362;47.202;15.258;2023-03-05T00:52:00;96000.38;;;-2.11;100.00
29379;BME280;16362;47.202;15.258;2023-03-05T00:54:27;95995.03;;;-2.09;100.00
29379;BME280;16362;47.202;15.258;2023-03-05T00:56:54;95989.69;;;-2.08;100.00
29379;BME280;16362;47.202;15.258;2023-03-05T00:59:20;95994.91;;;-2.08;100.00
29379;BME280;16362;47.202;15.258;2023-03-05T01:01:47;95995.31;;;-2.14;100.00
29379;BME280;16362;47.202;15.258;2023-03-05T01:04:14;95993.13;;;-2.07;100.00
29379;BME280;16362;47.202;15.258;2023-03-05T01:06:40;95987.50;;;-2.01;100.00
29379;BME280;16362;47.202;15.258;2023-03-05T01:09:10;95984.88;;;-1.75;100.00
29379;BME280;16362;47.202;15.258;2023-03-05T01:11:37;95988.88;;;-1.82;100.00
29379;BME280;16362;47.202;15.258;2023-03-05T01:14:03;95984.06;;;-1.89;100.00
29379;BME280;16362;47.202;15.258;2023-03-05T01:16:30;95986.03;;;-1.92;100.00
29379;BME280;16362;47.202;15.258;2023-03-05T01:18:57;95987.41;;;-1.87;100.00
29379;BME280;16362;47.202;15.258;2023-03-05T01:21:24;95979.75;;;-1.90;100.00
29379;BME280;16362;47.202;15.258;2023-03-05T01:23:51;95982.59;;;-1.93;100.00
29379;BME280;16362;47.202;15.258;2023-03-05T01:26:18;95988.31;;;-2.00;100.00
29379;BME280;16362;47.202;15.258;2023-03-05T01:28:44;95984.88;;;-2.01;100.00
29379;BME280;16362;47.202;15.258;2023-03-05T01:31:12;95985.81;;;-2.02;100.00
29379;BME280;16362;47.202;15.258;2023-03-05T01:33:39;95991.81;;;-2.00;100.00
29379;BME280;16362;47.202;15.258;2023-03-05T01:36:07;95981.94;;;-1.96;100.00
29379;BME280;16362;47.202;15.258;2023-03-05T01:38:38;95988.22;;;-1.99;100.00
29379;BME280;16362;47.202;15.258;2023-03-05T01:41:05;95989.91;;;-1.98;100.00
29379;BME280;16362;47.202;15.258;2023-03-05T01:43:31;95977.78;;;-1.86;100.00
29379;BME280;16362;47.202;15.258;2023-03-05T01:46:21;95993.25;;;-2.09;100.00
29379;BME280;16362;47.202;15.258;2023-03-05T01:49:12;95990.00;;;-2.12;100.00
29379;BME280;16362;47.202;15.258;2023-03-05T01:54:20;95987.41;;;-2.12;100.00
29379;BME280;16362;47.202;15.258;2023-03-05T01:56:49;95988.94;;;-2.23;100.00
29379;BME280;16362;47.202;15.258;2023-03-05T02:03:29;95986.84;;;-2.30;100.00
29379;BME280;16362;47.202;15.258;2023-03-05T02:05:57;96004.09;;;-2.28;100.00
29379;BME280;16362;47.202;15.258;2023-03-05T02:08:37;95991.13;;;-2.29;100.00
29379;BME280;16362;47.202;15.258;2023-03-05T02:11:04;95984.03;;;-2.27;100.00
29379;BME280;16362;47.202;15.258;2023-03-05T02:13:33;95990.69;;;-2.36;100.00
29379;BME280;16362;47.202;15.258;2023-03-05T02:16:01;95987.38;;;-2.38;100.00
29379;BME280;16362;47.202;15.258;2023-03-05T02:20:01;95988.06;;;-2.49;100.00
29379;BME280;16362;47.202;15.258;2023-03-05T02:22:28;95988.78;;;-2.47;100.00
29379;BME280;16362;47.202;15.258;2023-03-05T02:24:55;95986.38;;;-2.50;100.00
29379;BME280;16362;47.202;15.258;2023-03-05T02:27:28;95977.69;;;-2.50;100.00
29379;BME280;16362;47.202;15.258;2023-03-05T02:30:00;95970.00;;;-2.39;100.00
29379;BME280;16362;47.202;15.258;2023-03-05T02:32:28;95970.94;;;-2.40;100.00
29379;BME280;16362;47.202;15.258;2023-03-05T02:34:55;95973.69;;;-2.69;100.00
29379;BME280;16362;47.202;15.258;2023-03-05T02:37:21;95967.03;;;-2.60;100.00
29379;BME280;16362;47.202;15.258;2023-03-05T02:39:48;95984.88;;;-2.67;100.00
29379;BME280;16362;47.202;15.258;2023-03-05T02:42:15;95960.03;;;-2.47;100.00
29379;BME280;16362;47.202;15.258;2023-03-05T02:44:41;95979.25;;;-2.61;100.00
29379;BME280;16362;47.202;15.258;2023-03-05T02:47:08;95967.38;;;-2.79;100.00
29379;BME280;16362;47.202;15.258;2023-03-05T02:49:34;95970.22;;;-2.82;100.00
29379;BME280;16362;47.202;15.258;2023-03-05T02:52:01;95977.19;;;-2.83;100.00
29379;BME280;16362;47.202;15.258;2023-03-05T02:54:28;95958.03;;;-2.69;100.00
29379;BME280;16362;47.202;15.258;2023-03-05T02:56:55;95964.91;;;-2.68;100.00
29379;BME280;16362;47.202;15.258;2023-03-05T02:59:54;95964.97;;;-2.82;100.00
29379;BME280;16362;47.202;15.258;2023-03-05T03:02:20;95964.66;;;-2.78;100.00
29379;BME280;16362;47.202;15.258;2023-03-05T03:04:47;95965.53;;;-2.77;100.00
29379;BME280;16362;47.202;15.258;2023-03-05T03:07:14;95962.91;;;-2.77;100.00
29379;BME280;16362;47.202;15.258;2023-03-05T03:09:41;95961.03;;;-2.75;100.00
29379;BME280;16362;47.202;15.258;2023-03-05T03:12:09;95955.69;;;-2.74;100.00
29379;BME280;16362;47.202;15.258;2023-03-05T03:14:38;95953.09;;;-2.74;100.00
29379;BME280;16362;47.202;15.258;2023-03-05T03:17:06;95958.38;;;-2.88;100.00
29379;BME280;16362;47.202;15.258;2023-03-05T03:19:34;95955.34;;;-2.95;100.00
29379;BME280;16362;47.202;15.258;2023-03-05T03:22:01;95960.47;;;-2.93;100.00
29379;BME280;16362;47.202;15.258;2023-03-05T03:24:29;95959.97;;;-2.85;100.00
29379;BME280;16362;47.202;15.258;2023-03-05T03:26:55;95959.66;;;-2.81;100.00
29379;BME280;16362;47.202;15.258;2023-03-05T03:29:22;95957.38;;;-2.73;100.00
29379;BME280;16362;47.202;15.258;2023-03-05T03:31:49;95965.81;;;-2.82;100.00
29379;BME280;16362;47.202;15.258;2023-03-05T03:34:16;95960.47;;;-2.93;100.00
29379;BME280;16362;47.202;15.258;2023-03-05T03:36:44;95966.28;;;-2.90;100.00
29379;BME280;16362;47.202;15.258;2023-03-05T03:39:11;95966.66;;;-2.81;100.00
29379;BME280;16362;47.202;15.258;2023-03-05T03:41:41;95948.38;;;-2.81;100.00
29379;BME280;16362;47.202;15.258;2023-03-05T03:44:09;95954.44;;;-2.81;100.00
29379;BME280;16362;47.202;15.258;2023-03-05T03:46:37;95957.25;;;-2.84;100.00
29379;BME280;16362;47.202;15.258;2023-03-05T03:49:05;95951.38;;;-2.88;100.00
29379;BME280;16362;47.202;15.258;2023-03-05T03:51:33;95958.84;;;-2.81;100.00
29379;BME280;16362;47.202;15.258;2023-03-05T03:54:00;95955.56;;;-2.85;100.00
29379;BME280;16362;47.202;15.258;2023-03-05T03:56:40;95951.03;;;-2.96;100.00
29379;BME280;16362;47.202;15.258;2023-03-05T03:59:07;95938.72;;;-2.94;100.00
29379;BME280;16362;47.202;15.258;2023-03-05T04:01:34;95944.38;;;-2.87;100.00
29379;BME280;16362;47.202;15.258;2023-03-05T04:04:01;95941.47;;;-2.82;100.00
29379;BME280;16362;47.202;15.258;2023-03-05T04:06:28;95947.31;;;-2.79;100.00
29379;BME280;16362;47.202;15.258;2023-03-05T04:08:54;95932.44;;;-2.64;100.00
29379;BME280;16362;47.202;15.258;2023-03-05T04:11:21;95936.38;;;-2.71;100.00
29379;BME280;16362;47.202;15.258;2023-03-05T04:13:48;95937.50;;;-2.75;100.00
29379;BME280;16362;47.202;15.258;2023-03-05T04:16:15;95940.03;;;-2.74;100.00
29379;BME280;16362;47.202;15.258;2023-03-05T04:18:42;95929.03;;;-2.79;100.00
29379;BME280;16362;47.202;15.258;2023-03-05T04:21:09;95927.66;;;-2.84;100.00
29379;BME280;16362;47.202;15.258;2023-03-05T04:23:36;95920.00;;;-3.00;100.00
29379;BME280;16362;47.202;15.258;2023-03-05T04:26:03;95927.00;;;-3.01;100.00
29379;BME280;16362;47.202;15.258;2023-03-05T04:28:30;95926.72;;;-2.96;100.00
29379;BME280;16362;47.202;15.258;2023-03-05T04:30:57;95929.22;;;-2.95;100.00
29379;BME280;16362;47.202;15.258;2023-03-05T04:33:24;95929.94;;;-2.93;100.00
29379;BME280;16362;47.202;15.258;2023-03-05T04:35:50;95919.56;;;-2.80;100.00
29379;BME280;16362;47.202;15.258;2023-03-05T04:38:17;95918.50;;;-2.77;100.00
29379;BME280;16362;47.202;15.258;2023-03-05T04:40:45;95921.63;;;-2.85;100.00
29379;BME280;16362;47.202;15.258;2023-03-05T04:43:11;95916.41;;;-2.85;100.00
29379;BME280;16362;47.202;15.258;2023-03-05T04:45:39;95927.88;;;-2.88;100.00
29379;BME280;16362;47.202;15.258;2023-03-05T04:48:07;95919.84;;;-2.84;100.00
29379;BME280;16362;47.202;15.258;2023-03-05T04:50:34;95910.84;;;-2.80;100.00
29379;BME280;16362;47.202;15.258;2023-03-05T04:53:00;95921.81;;;-2.88;100.00
29379;BME280;16362;47.202;15.258;2023-03-05T04:55:28;95917.81;;;-2.94;100.00
29379;BME280;16362;47.202;15.258;2023-03-05T04:57:54;95911.56;;;-2.91;100.00
29379;BME280;16362;47.202;15.258;2023-03-05T05:00:21;95911.78;;;-2.94;100.00
29379;BME280;16362;47.202;15.258;2023-03-05T05:02:49;95912.69;;;-2.95;100.00
29379;BME280;16362;47.202;15.258;2023-03-05T05:05:23;95904.88;;;-2.95;100.00
29379;BME280;16362;47.202;15.258;2023-03-05T05:07:54;95914.00;;;-2.88;100.00
29379;BME280;16362;47.202;15.258;2023-03-05T05:12:16;95910.34;;;-2.85;100.00
29379;BME280;16362;47.202;15.258;2023-03-05T05:14:42;95910.97;;;-2.82;100.00
29379;BME280;16362;47.202;15.258;2023-03-05T05:17:09;95917.81;;;-2.94;100.00
29379;BME280;16362;47.202;15.258;2023-03-05T05:19:36;95901.66;;;-2.86;100.00
29379;BME280;16362;47.202;15.258;2023-03-05T05:22:02;95907.91;;;-2.89;100.00
29379;BME280;16362;47.202;15.258;2023-03-05T05:24:29;95905.75;;;-2.82;100.00
29379;BME280;16362;47.202;15.258;2023-03-05T05:26:56;95904.97;;;-2.97;100.00
29379;BME280;16362;47.202;15.258;2023-03-05T05:29:22;95912.38;;;-3.03;100.00
29379;BME280;16362;47.202;15.258;2023-03-05T05:31:49;95905.38;;;-3.03;100.00
29379;BME280;16362;47.202;15.258;2023-03-05T05:34:16;95910.59;;;-3.03;100.00
29379;BME280;16362;47.202;15.258;2023-03-05T05:36:42;95906.94;;;-3.00;100.00
29379;BME280;16362;47.202;15.258;2023-03-05T05:39:09;95908.50;;;-2.98;100.00
29379;BME280;16362;47.202;15.258;2023-03-05T05:41:36;95919.28;;;-3.02;100.00
29379;BME280;16362;47.202;15.258;2023-03-05T05:44:03;95917.75;;;-2.92;100.00
29379;BME280;16362;47.202;15.258;2023-03-05T05:46:29;95914.91;;;-2.89;100.00
29379;BME280;16362;47.202;15.258;2023-03-05T05:48:56;95919.50;;;-2.93;100.00
29379;BME280;16362;47.202;15.258;2023-03-05T05:51:23;95917.09;;;-2.96;100.00
29379;BME280;16362;47.202;15.258;2023-03-05T05:53:50;95915.63;;;-3.00;100.00
29379;BME280;16362;47.202;15.258;2023-03-05T05:56:17;95918.78;;;-2.95;100.00
29379;BME280;16362;47.202;15.258;2023-03-05T05:58:46;95912.75;;;-2.69;100.00
29379;BME280;16362;47.202;15.258;2023-03-05T06:03:46;95920.59;;;-2.69;100.00
29379;BME280;16362;47.202;15.258;2023-03-05T06:06:16;95928.75;;;-2.74;100.00
29379;BME280;16362;47.202;15.258;2023-03-05T06:10:40;95918.41;;;-2.63;100.00
29379;BME280;16362;47.202;15.258;2023-03-05T06:13:07;95909.97;;;-2.66;100.00
29379;BME280;16362;47.202;15.258;2023-03-05T06:15:34;95918.41;;;-2.63;100.00
29379;BME280;16362;47.202;15.258;2023-03-05T06:18:00;95917.91;;;-2.55;100.00
29379;BME280;16362;47.202;15.258;2023-03-05T06:20:27;95920.84;;;-2.47;100.00
29379;BME280;16362;47.202;15.258;2023-03-05T06:22:54;95912.50;;;-2.39;100.00
29379;BME280;16362;47.202;15.258;2023-03-05T06:25:21;95922.53;;;-2.33;100.00
29379;BME280;16362;47.202;15.258;2023-03-05T06:27:47;95918.56;;;-2.26;100.00
29379;BME280;16362;47.202;15.258;2023-03-05T06:30:14;95919.41;;;-2.12;100.00
29379;BME280;16362;47.202;15.258;2023-03-05T06:32:41;95915.13;;;-2.13;100.00
29379;BME280;16362;47.202;15.258;2023-03-05T06:35:08;95922.75;;;-2.10;100.00
29379;BME280;16362;47.202;15.258;2023-03-05T06:37:34;95907.97;;;-1.86;100.00
29379;BME280;16362;47.202;15.258;2023-03-05T06:40:01;95914.31;;;-1.64;100.00
29379;BME280;16362;47.202;15.258;2023-03-05T06:42:28;95906.91;;;-1.70;100.00
29379;BME280;16362;47.202;15.258;2023-03-05T06:44:55;95911.00;;;-1.66;100.00
29379;BME280;16362;47.202;15.258;2023-03-05T06:47:21;95912.34;;;-1.60;100.00
29379;BME280;16362;47.202;15.258;2023-03-05T06:49:48;95910.03;;;-1.28;100.00
29379;BME280;16362;47.202;15.258;2023-03-05T06:52:24;95909.53;;;-1.09;100.00
29379;BME280;16362;47.202;15.258;2023-03-05T06:54:50;95910.44;;;-0.97;100.00
29379;BME280;16362;47.202;15.258;2023-03-05T06:57:21;95910.66;;;-0.76;100.00
29379;BME280;16362;47.202;15.258;2023-03-05T06:59:48;95904.41;;;-0.51;100.00
29379;BME280;16362;47.202;15.258;2023-03-05T07:02:15;95900.97;;;-0.40;100.00
29379;BME280;16362;47.202;15.258;2023-03-05T07:04:42;95901.91;;;-0.41;100.00
29379;BME280;16362;47.202;15.258;2023-03-05T07:07:09;95899.69;;;-0.34;100.00
29379;BME280;16362;47.202;15.258;2023-03-05T07:09:35;95900.66;;;-0.12;100.00
29379;BME280;16362;47.202;15.258;2023-03-05T07:12:11;95901.41;;;0.24;100.00
29379;BME280;16362;47.202;15.258;2023-03-05T07:14:38;95896.72;;;0.50;100.00
29379;BME280;16362;47.202;15.258;2023-03-05T07:17:05;95893.25;;;0.72;100.00
29379;BME280;16362;47.202;15.258;2023-03-05T07:19:33;95892.41;;;1.04;100.00
29379;BME280;16362;47.202;15.258;2023-03-05T07:21:59;95894.69;;;1.09;100.00
29379;BME280;16362;47.202;15.258;2023-03-05T07:24:26;95885.25;;;1.06;100.00
29379;BME280;16362;47.202;15.258;2023-03-05T07:26:56;95883.78;;;1.13;100.00
29379;BME280;16362;47.202;15.258;2023-03-05T07:29:24;95883.25;;;1.31;100.00
29379;BME280;16362;47.202;15.258;2023-03-05T07:31:52;95884.81;;;1.55;100.00
29379;BME280;16362;47.202;15.258;2023-03-05T07:34:19;95891.28;;;1.72;100.00
29379;BME280;16362;47.202;15.258;2023-03-05T07:36:49;95883.38;;;1.93;100.00
29379;BME280;16362;47.202;15.258;2023-03-05T07:39:24;95880.50;;;2.06;100.00
29379;BME280;16362;47.202;15.258;2023-03-05T07:41:51;95872.22;;;2.41;100.00
29379;BME280;16362;47.202;15.258;2023-03-05T07:44:18;95876.75;;;2.70;98.74
29379;BME280;16362;47.202;15.258;2023-03-05T07:46:45;95870.09;;;2.85;98.29
29379;BME280;16362;47.202;15.258;2023-03-05T07:49:12;95861.81;;;3.00;97.00
29379;BME280;16362;47.202;15.258;2023-03-05T07:51:39;95867.34;;;2.97;92.79
29379;BME280;16362;47.202;15.258;2023-03-05T07:54:06;95859.94;;;2.61;94.75
29379;BME280;16362;47.202;15.258;2023-03-05T07:56:34;95861.44;;;2.54;96.28
29379;BME280;16362;47.202;15.258;2023-03-05T07:59:04;95857.19;;;2.63;96.36
29379;BME280;16362;47.202;15.258;2023-03-05T08:01:32;95850.38;;;2.70;96.37
29379;BME280;16362;47.202;15.258;2023-03-05T08:03:59;95847.09;;;2.88;95.81
29379;BME280;16362;47.202;15.258;2023-03-05T08:06:26;95841.97;;;2.86;96.06
29379;BME280;16362;47.202;15.258;2023-03-05T08:08:53;95847.38;;;2.84;95.75
29379;BME280;16362;47.202;15.258;2023-03-05T08:11:20;95846.50;;;2.74;96.88
29379;BME280;16362;47.202;15.258;2023-03-05T08:13:47;95845.94;;;2.61;97.63
29379;BME280;16362;47.202;15.258;2023-03-05T08:16:16;95840.41;;;2.74;98.46
29379;BME280;16362;47.202;15.258;2023-03-05T08:18:43;95839.75;;;3.01;96.89
29379;BME280;16362;47.202;15.258;2023-03-05T08:21:31;95826.84;;;3.37;95.97
29379;BME280;16362;47.202;15.258;2023-03-05T08:24:04;95815.16;;;3.49;93.99
29379;BME280;16362;47.202;15.258;2023-03-05T08:26:32;95819.16;;;3.63;93.97
29379;BME280;16362;47.202;15.258;2023-03-05T08:28:59;95819.28;;;4.09;94.61
29379;BME280;16362;47.202;15.258;2023-03-05T08:31:26;95814.13;;;4.45;91.33
29379;BME280;16362;47.202;15.258;2023-03-05T08:33:57;95809.66;;;4.74;89.01
29379;BME280;16362;47.202;15.258;2023-03-05T08:36:24;95800.59;;;4.94;87.06
29379;BME280;16362;47.202;15.258;2023-03-05T08:38:51;95798.25;;;5.09;86.79
29379;BME280;16362;47.202;15.258;2023-03-05T08:41:30;95792.81;;;4.93;87.04
29379;BME280;16362;47.202;15.258;2023-03-05T08:43:57;95794.53;;;5.02;85.77
29379;BME280;16362;47.202;15.258;2023-03-05T08:46:23;95792.41;;;5.05;84.45
29379;BME280;16362;47.202;15.258;2023-03-05T08:48:50;95788.88;;;4.97;85.00
29379;BME280;16362;47.202;15.258;2023-03-05T08:51:19;95794.63;;;5.10;83.93
29379;BME280;16362;47.202;15.258;2023-03-05T08:53:46;95792.94;;;5.09;84.32
29379;BME280;16362;47.202;15.258;2023-03-05T08:56:13;95794.75;;;4.72;87.86
29379;BME280;16362;47.202;15.258;2023-03-05T08:58:41;95792.28;;;4.43;89.33
29379;BME280;16362;47.202;15.258;2023-03-05T09:01:08;95794.25;;;4.41;89.70
29379;BME280;16362;47.202;15.258;2023-03-05T09:03:34;95791.25;;;4.26;90.34
29379;BME280;16362;47.202;15.258;2023-03-05T09:06:04;95797.19;;;4.38;88.03
29379;BME280;16362;47.202;15.258;2023-03-05T09:08:32;95786.28;;;4.51;88.50
29379;BME280;16362;47.202;15.258;2023-03-05T09:11:01;95777.22;;;4.89;86.64
29379;BME280;16362;47.202;15.258;2023-03-05T09:13:28;95778.59;;;4.94;83.29
29379;BME280;16362;47.202;15.258;2023-03-05T09:15:57;95777.53;;;4.86;82.67
29379;BME280;16362;47.202;15.258;2023-03-05T09:18:25;95774.22;;;4.84;82.05
29379;BME280;16362;47.202;15.258;2023-03-05T09:20:52;95779.59;;;4.93;81.71
29379;BME280;16362;47.202;15.258;2023-03-05T09:23:20;95773.75;;;4.89;81.94
29379;BME280;16362;47.202;15.258;2023-03-05T09:25:47;95778.31;;;4.97;79.79
29379;BME280;16362;47.202;15.258;2023-03-05T09:28:15;95778.59;;;4.94;79.57
29379;BME280;16362;47.202;15.258;2023-03-05T09:30:41;95774.16;;;4.94;77.54
29379;BME280;16362;47.202;15.258;2023-03-05T09:33:10;95766.28;;;4.84;77.55
29379;BME280;16362;47.202;15.258;2023-03-05T09:35:37;95769.38;;;4.98;76.94
29379;BME280;16362;47.202;15.258;2023-03-05T09:39:51;95770.72;;;5.02;74.39
29379;BME280;16362;47.202;15.258;2023-03-05T09:45:19;95758.47;;;5.19;72.28
29379;BME280;16362;47.202;15.258;2023-03-05T09:48:18;95750.84;;;4.98;72.98
29379;BME280;16362;47.202;15.258;2023-03-05T09:53:06;95757.28;;;4.77;73.11
29379;BME280;16362;47.202;15.258;2023-03-05T09:55:38;95753.44;;;4.89;72.99
29379;BME280;16362;47.202;15.258;2023-03-05T09:58:21;95752.84;;;4.96;73.01
29379;BME280;16362;47.202;15.258;2023-03-05T10:01:02;95748.75;;;5.01;72.02
29379;BME280;16362;47.202;15.258;2023-03-05T10:03:53;95744.38;;;5.10;73.99
29379;BME280;16362;47.202;15.258;2023-03-05T10:08:51;95745.09;;;5.20;72.75
29379;BME280;16362;47.202;15.258;2023-03-05T10:13:54;95734.88;;;5.26;70.38
29379;BME280;16362;47.202;15.258;2023-03-05T10:18:16;95720.25;;;5.39;69.48
29379;BME280;16362;47.202;15.258;2023-03-05T10:21:49;95720.47;;;5.46;68.99
29379;BME280;16362;47.202;15.258;2023-03-05T10:26:42;95721.63;;;5.78;65.12
29379;BME280;16362;47.202;15.258;2023-03-05T10:29:04;95705.72;;;5.70;65.45
29379;BME280;16362;47.202;15.258;2023-03-05T10:31:40;95707.09;;;5.82;64.78
29379;BME280;16362;47.202;15.258;2023-03-05T10:34:57;95707.56;;;5.78;64.90
29379;BME280;16362;47.202;15.258;2023-03-05T10:42:27;95701.47;;;5.85;68.54
29379;BME280;16362;47.202;15.258;2023-03-05T10:44:59;95695.06;;;5.96;67.01
29379;BME280;16362;47.202;15.258;2023-03-05T10:49:53;95672.00;;;6.31;63.24
29379;BME280;16362;47.202;15.258;2023-03-05T10:52:32;95674.31;;;6.26;63.66
29379;BME280;16362;47.202;15.258;2023-03-05T10:55:00;95670.88;;;6.42;61.06
29379;BME280;16362;47.202;15.258;2023-03-05T10:57:28;95666.22;;;6.36;61.47
29379;BME280;16362;47.202;15.258;2023-03-05T11:02:31;95655.66;;;6.44;61.14
29379;BME280;16362;47.202;15.258;2023-03-05T11:04:58;95648.69;;;6.51;60.44
29379;BME280;16362;47.202;15.258;2023-03-05T11:10:37;95639.06;;;6.50;59.39
29379;BME280;16362;47.202;15.258;2023-03-05T11:12:38;95632.59;;;6.28;60.48
29379;BME280;16362;47.202;15.258;2023-03-05T11:15:17;95624.13;;;6.24;60.28
29379;BME280;16362;47.202;15.258;2023-03-05T11:18:02;95619.16;;;6.21;60.52
29379;BME280;16362;47.202;15.258;2023-03-05T11:20:31;95618.22;;;6.39;60.30
29379;BME280;16362;47.202;15.258;2023-03-05T11:25:32;95610.22;;;6.88;56.87
29379;BME280;16362;47.202;15.258;2023-03-05T11:27:59;95612.06;;;6.96;59.16
29379;BME280;16362;47.202;15.258;2023-03-05T11:30:33;95608.91;;;6.84;56.27
29379;BME280;16362;47.202;15.258;2023-03-05T11:35:37;95591.28;;;7.16;53.27
29379;BME280;16362;47.202;15.258;2023-03-05T11:38:04;95584.28;;;7.32;54.83
29379;BME280;16362;47.202;15.258;2023-03-05T11:40:32;95575.44;;;7.48;53.04
29379;BME280;16362;47.202;15.258;2023-03-05T11:43:02;95571.88;;;7.64;52.99
29379;BME280;16362;47.202;15.258;2023-03-05T11:45:30;95570.34;;;8.01;51.01
29379;BME280;16362;47.202;15.258;2023-03-05T11:50:43;95562.19;;;8.02;49.64
29379;BME280;16362;47.202;15.258;2023-03-05T11:53:17;95554.06;;;8.04;50.46
29379;BME280;16362;47.202;15.258;2023-03-05T11:55:48;95550.38;;;8.05;50.52
29379;BME280;16362;47.202;15.258;2023-03-05T12:01:02;95543.78;;;7.69;50.50
29379;BME280;16362;47.202;15.258;2023-03-05T12:03:32;95538.44;;;7.78;51.14
29379;BME280;16362;47.202;15.258;2023-03-05T12:08:33;95527.94;;;7.53;52.55
29379;BME280;16362;47.202;15.258;2023-03-05T12:11:03;95530.81;;;7.74;51.18
29379;BME280;16362;47.202;15.258;2023-03-05T12:13:34;95521.56;;;7.70;50.32
29379;BME280;16362;47.202;15.258;2023-03-05T12:23:27;95497.25;;;8.05;47.52
29379;BME280;16362;47.202;15.258;2023-03-05T12:25:55;95498.34;;;7.87;49.08
29379;BME280;16362;47.202;15.258;2023-03-05T12:33:29;95478.69;;;8.20;47.56
29379;BME280;16362;47.202;15.258;2023-03-05T12:39:00;95469.78;;;8.13;46.47
29379;BME280;16362;47.202;15.258;2023-03-05T12:49:37;95457.56;;;7.80;46.54
29379;BME280;16362;47.202;15.258;2023-03-05T12:52:06;95451.84;;;7.68;47.52
29379;BME280;16362;47.202;15.258;2023-03-05T12:54:39;95448.66;;;7.73;49.07
29379;BME280;16362;47.202;15.258;2023-03-05T12:59:44;95447.25;;;7.85;47.64
29379;BME280;16362;47.202;15.258;2023-03-05T13:02:24;95445.13;;;7.81;46.74
29379;BME280;16362;47.202;15.258;2023-03-05T13:04:52;95450.72;;;7.63;49.68
29379;BME280;16362;47.202;15.258;2023-03-05T13:07:22;95438.03;;;7.50;49.11
29379;BME280;16362;47.202;15.258;2023-03-05T13:09:52;95450.34;;;7.42;49.21
29379;BME280;16362;47.202;15.258;2023-03-05T13:12:20;95450.97;;;7.21;50.12
29379;BME280;16362;47.202;15.258;2023-03-05T13:14:48;95447.47;;;7.21;49.09
29379;BME280;16362;47.202;15.258;2023-03-05T13:20:00;95444.78;;;7.29;47.93
29379;BME280;16362;47.202;15.258;2023-03-05T13:22:27;95438.97;;;7.34;49.36
29379;BME280;16362;47.202;15.258;2023-03-05T13:25:03;95442.13;;;7.29;47.65
29379;BME280;16362;47.202;15.258;2023-03-05T13:27:31;95442.56;;;7.41;47.74
29379;BME280;16362;47.202;15.258;2023-03-05T13:29:57;95435.72;;;7.47;47.27
29379;BME280;16362;47.202;15.258;2023-03-05T13:32:25;95436.88;;;7.44;47.94
29379;BME280;16362;47.202;15.258;2023-03-05T13:34:53;95429.78;;;7.45;47.89
29379;BME280;16362;47.202;15.258;2023-03-05T13:37:23;95431.88;;;7.49;47.72
29379;BME280;16362;47.202;15.258;2023-03-05T13:40:04;95426.56;;;7.26;49.04
29379;BME280;16362;47.202;15.258;2023-03-05T13:42:41;95427.34;;;7.35;48.44
29379;BME280;16362;47.202;15.258;2023-03-05T13:45:41;95422.53;;;7.30;50.77
29379;BME280;16362;47.202;15.258;2023-03-05T13:48:02;95417.06;;;7.32;53.43
29379;BME280;16362;47.202;15.258;2023-03-05T13:50:31;95420.88;;;7.29;54.06
29379;BME280;16362;47.202;15.258;2023-03-05T13:55:46;95411.25;;;6.97;56.39
29379;BME280;16362;47.202;15.258;2023-03-05T14:01:13;95409.97;;;6.93;58.25
29379;BME280;16362;47.202;15.258;2023-03-05T14:03:51;95411.03;;;6.83;58.36
29379;BME280;16362;47.202;15.258;2023-03-05T14:06:19;95409.06;;;6.69;58.60
29379;BME280;16362;47.202;15.258;2023-03-05T14:08:50;95409.88;;;6.69;59.07
29379;BME280;16362;47.202;15.258;2023-03-05T14:11:17;95406.03;;;6.80;59.49
29379;BME280;16362;47.202;15.258;2023-03-05T14:13:45;95400.91;;;6.79;59.90
29379;BME280;16362;47.202;15.258;2023-03-05T14:16:23;95406.28;;;6.62;60.72
29379;BME280;16362;47.202;15.258;2023-03-05T14:21:20;95397.47;;;6.70;59.74
29379;BME280;16362;47.202;15.258;2023-03-05T14:23:47;95393.66;;;6.72;59.57
29379;BME280;16362;47.202;15.258;2023-03-05T14:31:13;95390.06;;;6.57;60.15
29379;BME280;16362;47.202;15.258;2023-03-05T14:33:41;95378.28;;;6.60;60.75
29379;BME280;16362;47.202;15.258;2023-03-05T14:36:08;95383.94;;;6.56;60.83
29379;BME280;16362;47.202;15.258;2023-03-05T14:38:38;95386.13;;;6.45;62.25